createdAt,value
2022-08-18T00:01:45.653Z,98618.22
2022-08-18T00:04:35.035Z,98599.44
2022-08-18T00:07:01.881Z,98607.66
2022-08-18T00:09:32.405Z,98616.19
2022-08-18T00:12:04.664Z,98619.72
2022-08-18T00:14:32.958Z,98621.97
2022-08-18T00:17:00.604Z,98622.00
2022-08-18T00:19:45.746Z,98618.88
2022-08-18T00:22:17.240Z,98617.97
2022-08-18T00:24:49.290Z,98625.72
2022-08-18T00:27:23.095Z,98621.78
2022-08-18T00:29:53.681Z,98632.63
2022-08-18T00:32:25.266Z,98627.19
2022-08-18T00:34:54.095Z,98633.34
2022-08-18T00:37:23.644Z,98631.09
2022-08-18T00:39:53.436Z,98638.06
2022-08-18T00:42:30.798Z,98636.59
2022-08-18T00:45:02.328Z,98644.00
2022-08-18T00:47:41.617Z,98644.72
2022-08-18T00:50:19.525Z,98638.22
2022-08-18T00:52:56.686Z,98641.28
2022-08-18T00:55:25.686Z,98643.56
2022-08-18T00:58:02.081Z,98638.50
2022-08-18T01:00:29.993Z,98647.44
2022-08-18T01:03:01.620Z,98656.03
2022-08-18T01:05:44.145Z,98660.44
2022-08-18T01:08:16.994Z,98664.63
2022-08-18T01:10:50.102Z,98657.00
2022-08-18T01:13:18.155Z,98657.50
2022-08-18T01:15:45.624Z,98654.66
2022-08-18T01:18:33.100Z,98675.00
2022-08-18T01:21:18.931Z,98665.66
2022-08-18T01:23:48.967Z,98673.47
2022-08-18T01:26:44.135Z,98679.44
2022-08-18T01:29:18.757Z,98680.88
2022-08-18T01:31:56.682Z,98678.63
2022-08-18T01:34:27.729Z,98687.94
2022-08-18T01:36:56.125Z,98693.00
2022-08-18T01:41:25.164Z,98686.78
2022-08-18T01:42:14.693Z,98692.25
2022-08-18T01:44:42.218Z,98689.19
2022-08-18T01:47:11.435Z,98695.47
2022-08-18T01:49:43.433Z,98714.69
2022-08-18T01:52:18.158Z,98702.31
2022-08-18T01:54:46.078Z,98703.03
2022-08-18T01:57:17.516Z,98703.03
2022-08-18T01:59:45.441Z,98703.47
2022-08-18T02:02:18.107Z,98718.66
2022-08-18T02:04:47.746Z,98710.91
2022-08-18T02:07:15.530Z,98706.25
2022-08-18T02:09:44.604Z,98712.16
2022-08-18T02:12:13.410Z,98710.66
2022-08-18T02:14:41.589Z,98719.25
2022-08-18T02:17:11.385Z,98720.09
2022-08-18T02:19:47.012Z,98738.09
2022-08-18T02:22:18.932Z,98727.59
2022-08-18T02:24:47.742Z,98714.78
2022-08-18T02:27:16.321Z,98730.78
2022-08-18T02:29:43.892Z,98733.53
2022-08-18T02:32:11.409Z,98727.75
2022-08-18T02:34:39.003Z,98723.91
2022-08-18T02:37:06.583Z,98722.38
2022-08-18T02:39:35.697Z,98735.31
2022-08-18T02:42:03.315Z,98744.75
2022-08-18T02:44:32.315Z,98726.81
2022-08-18T02:47:00.507Z,98740.53
2022-08-18T02:49:28.739Z,98734.22
2022-08-18T02:51:56.211Z,98731.00
2022-08-18T02:54:25.245Z,98726.97
2022-08-18T02:56:53.549Z,98743.34
2022-08-18T02:59:24.698Z,98740.22
2022-08-18T03:01:54.284Z,98735.81
2022-08-18T03:04:29.399Z,98741.59
2022-08-18T03:07:00.556Z,98747.69
2022-08-18T03:09:29.718Z,98749.66
2022-08-18T03:11:58.583Z,98755.41
2022-08-18T03:14:26.555Z,98755.56
2022-08-18T03:16:55.391Z,98740.97
2022-08-18T03:19:25.883Z,98749.44
2022-08-18T03:21:53.333Z,98745.59
2022-08-18T03:24:23.033Z,98748.44
2022-08-18T03:26:53.290Z,98765.94
2022-08-18T03:29:21.496Z,98757.16
2022-08-18T03:31:49.486Z,98758.22
2022-08-18T03:34:20.077Z,98768.44
2022-08-18T03:36:50.167Z,98777.41
2022-08-18T03:39:19.882Z,98771.28
2022-08-18T03:41:59.680Z,98772.69
2022-08-18T03:44:31.787Z,98770.75
2022-08-18T03:47:00.438Z,98769.75
2022-08-18T03:49:28.179Z,98768.69
2022-08-18T03:51:56.065Z,98774.22
2022-08-18T03:54:23.665Z,98770.41
2022-08-18T03:56:51.180Z,98779.19
2022-08-18T03:59:25.107Z,98790.69
2022-08-18T04:01:55.347Z,98789.19
2022-08-18T04:04:25.832Z,98784.38
2022-08-18T04:06:57.461Z,98790.47
2022-08-18T04:09:28.081Z,98783.56
2022-08-18T04:11:57.014Z,98792.41
2022-08-18T04:14:29.975Z,98786.19
2022-08-18T04:16:57.726Z,98786.88
2022-08-18T04:19:26.946Z,98776.25
2022-08-18T04:21:57.984Z,98785.41
2022-08-18T04:24:28.018Z,98783.75
2022-08-18T04:26:59.223Z,98784.81
2022-08-18T04:29:26.690Z,98787.38
2022-08-18T04:31:54.170Z,98789.94
2022-08-18T04:34:23.078Z,98791.16
2022-08-18T04:36:54.263Z,98799.44
2022-08-18T04:39:23.267Z,98794.72
2022-08-18T04:41:51.184Z,98785.66
2022-08-18T04:44:19.539Z,98785.00
2022-08-18T04:46:50.369Z,98797.03
2022-08-18T04:49:19.460Z,98787.53
2022-08-18T04:52:26.720Z,98787.63
2022-08-18T04:54:57.077Z,98779.91
2022-08-18T04:57:26.444Z,98780.78
2022-08-18T04:59:54.537Z,98772.59
2022-08-18T05:02:22.266Z,98786.00
2022-08-18T05:04:49.681Z,98782.47
2022-08-18T05:07:19.708Z,98784.97
2022-08-18T05:09:47.481Z,98786.28
2022-08-18T05:12:16.671Z,98787.13
2022-08-18T05:14:45.594Z,98783.91
2022-08-18T05:17:14.692Z,98784.38
2022-08-18T05:19:44.734Z,98783.06
2022-08-18T05:22:18.386Z,98780.38
2022-08-18T05:24:46.596Z,98781.25
2022-08-18T05:27:14.527Z,98777.00
2022-08-18T05:29:45.664Z,98779.59
2022-08-18T05:32:40.981Z,98790.44
2022-08-18T05:35:12.415Z,98797.53
2022-08-18T05:38:06.287Z,98803.59
2022-08-18T05:40:34.616Z,98794.00
2022-08-18T05:43:05.053Z,98801.09
2022-08-18T05:45:35.049Z,98795.13
2022-08-18T05:48:02.994Z,98803.47
2022-08-18T05:50:35.592Z,98803.75
2022-08-18T05:53:13.246Z,98800.59
2022-08-18T05:56:11.655Z,98806.84
2022-08-18T05:58:44.265Z,98805.97
2022-08-18T06:01:19.049Z,98805.47
2022-08-18T06:03:50.037Z,98800.59
2022-08-18T06:06:21.961Z,98797.25
2022-08-18T06:09:17.909Z,98804.00
2022-08-18T06:11:45.915Z,98804.66
2022-08-18T06:14:13.799Z,98802.19
2022-08-18T06:16:41.186Z,98798.66
2022-08-18T06:19:30.225Z,98795.50
2022-08-18T06:22:15.532Z,98807.78
2022-08-18T06:24:56.948Z,98797.06
2022-08-18T06:28:01.510Z,98804.22
2022-08-18T06:30:50.658Z,98807.19
2022-08-18T06:33:34.885Z,98787.50
2022-08-18T06:36:19.547Z,98792.91
2022-08-18T06:39:08.462Z,98803.69
2022-08-18T06:41:45.525Z,98798.41
2022-08-18T06:44:37.038Z,98802.25
2022-08-18T06:47:32.496Z,98790.56
2022-08-18T06:50:08.547Z,98787.22
2022-08-18T06:52:40.442Z,98784.59
2022-08-18T06:55:16.247Z,98778.53
2022-08-18T06:57:58.729Z,98786.16
2022-08-18T07:00:32.609Z,98780.28
2022-08-18T07:03:22.488Z,98797.53
2022-08-18T07:06:06.765Z,98778.91
2022-08-18T07:08:38.954Z,98771.06
2022-08-18T07:11:18.588Z,98777.13
2022-08-18T07:14:03.397Z,98779.13
2022-08-18T07:16:57.248Z,98763.22
2022-08-18T07:19:30.295Z,98779.88
2022-08-18T07:22:19.028Z,98779.97
2022-08-18T07:24:55.245Z,98777.56
2022-08-18T07:27:41.799Z,98767.97
2022-08-18T07:30:20.367Z,98766.56
2022-08-18T07:33:05.562Z,98771.00
2022-08-18T07:35:45.065Z,98782.50
2022-08-18T07:38:43.853Z,98777.94
2022-08-18T07:41:24.446Z,98768.34
2022-08-18T07:44:11.349Z,98773.72
2022-08-18T07:46:56.218Z,98759.91
2022-08-18T07:49:26.825Z,98759.50
2022-08-18T07:52:00.196Z,98749.34
2022-08-18T07:54:56.374Z,98758.50
2022-08-18T07:57:42.620Z,98767.53
2022-08-18T08:00:55.293Z,98762.13
2022-08-18T08:03:28.005Z,98762.38
2022-08-18T08:06:00.673Z,98764.31
2022-08-18T08:08:35.558Z,98761.22
2022-08-18T08:11:17.487Z,98769.91
2022-08-18T08:13:55.831Z,98766.22
2022-08-18T08:16:44.704Z,98770.19
2022-08-18T08:19:12.659Z,98758.44
2022-08-18T08:21:53.004Z,98755.53
2022-08-18T08:24:46.542Z,98771.78
2022-08-18T08:27:24.543Z,98765.63
2022-08-18T08:30:01.840Z,98752.44
2022-08-18T08:32:36.996Z,98757.44
2022-08-18T08:35:48.848Z,98755.63
2022-08-18T08:38:39.522Z,98758.56
2022-08-18T08:41:12.218Z,98744.66
2022-08-18T08:43:49.534Z,98749.63
2022-08-18T08:46:25.153Z,98739.84
2022-08-18T08:50:00.562Z,98747.06
2022-08-18T08:52:38.584Z,98751.88
2022-08-18T08:55:13.894Z,98742.09
2022-08-18T08:57:52.703Z,98743.97
2022-08-18T09:00:20.446Z,98746.91
2022-08-18T09:03:18.867Z,98751.44
2022-08-18T09:06:00.473Z,98746.00
2022-08-18T09:08:58.953Z,98739.41
2022-08-18T09:11:29.317Z,98734.63
2022-08-18T09:14:40.688Z,98743.22
2022-08-18T09:17:34.308Z,98752.81
2022-08-18T09:20:04.609Z,98743.97
2022-08-18T09:22:52.411Z,98748.38
2022-08-18T09:25:38.284Z,98751.91
2022-08-18T09:28:40.424Z,98750.88
2022-08-18T09:31:08.848Z,98745.88
2022-08-18T09:33:48.670Z,98758.72
2022-08-18T09:36:31.272Z,98748.38
2022-08-18T09:39:55.137Z,98757.78
2022-08-18T09:43:09.072Z,98748.22
2022-08-18T09:45:56.087Z,98759.59
2022-08-18T09:48:31.864Z,98758.66
2022-08-18T09:51:17.610Z,98758.22
2022-08-18T09:53:54.245Z,98751.78
2022-08-18T09:56:54.338Z,98766.00
2022-08-18T09:59:35.821Z,98763.19
2022-08-18T10:02:18.967Z,98758.03
2022-08-18T10:05:17.443Z,98750.66
2022-08-18T10:08:06.276Z,98763.22
2022-08-18T10:11:01.448Z,98746.66
2022-08-18T10:13:56.171Z,98760.13
2022-08-18T10:17:13.478Z,98761.81
2022-08-18T10:19:55.710Z,98757.75
2022-08-18T10:22:46.945Z,98756.56
2022-08-18T10:25:30.336Z,98764.69
2022-08-18T10:27:58.123Z,98756.81
2022-08-18T10:30:36.478Z,98767.19
2022-08-18T10:34:00.882Z,98764.88
2022-08-18T10:36:58.925Z,98750.16
2022-08-18T10:46:23.713Z,98777.78
2022-08-18T10:48:42.078Z,98772.63
2022-08-18T10:51:21.384Z,98776.38
2022-08-18T10:53:54.002Z,98770.91
2022-08-18T10:56:40.443Z,98767.69
2022-08-18T10:59:28.095Z,98779.56
2022-08-18T11:02:14.930Z,98781.44
2022-08-18T11:04:58.797Z,98781.34
2022-08-18T11:07:39.621Z,98780.25
2022-08-18T11:10:57.523Z,98786.09
2022-08-18T11:13:53.920Z,98780.13
2022-08-18T11:16:32.334Z,98785.66
2022-08-18T11:19:20.648Z,98791.84
2022-08-18T11:21:51.977Z,98779.88
2022-08-18T11:24:24.779Z,98783.84
2022-08-18T11:27:00.144Z,98783.59
2022-08-18T11:29:39.805Z,98796.44
2022-08-18T11:32:12.194Z,98783.25
2022-08-18T11:34:54.067Z,98787.47
2022-08-18T11:37:51.461Z,98780.34
2022-08-18T11:41:09.049Z,98774.84
2022-08-18T11:43:38.906Z,98789.66
2022-08-18T11:46:30.833Z,98791.50
2022-08-18T11:49:01.772Z,98790.59
2022-08-18T11:51:32.647Z,98783.31
2022-08-18T11:54:01.961Z,98787.28
2022-08-18T11:56:38.080Z,98796.31
2022-08-18T11:59:25.709Z,98796.00
2022-08-18T12:02:18.558Z,98803.66
2022-08-18T12:04:52.735Z,98802.31
2022-08-18T12:07:33.873Z,98807.81
2022-08-18T12:10:26.160Z,98808.38
2022-08-18T12:15:47.775Z,98804.91
2022-08-18T12:18:26.646Z,98821.84
2022-08-18T12:20:58.806Z,98812.28
2022-08-18T12:23:26.955Z,98810.72
2022-08-18T12:25:54.764Z,98805.31
2022-08-18T12:28:22.663Z,98815.09
2022-08-18T12:30:56.393Z,98831.47
2022-08-18T12:33:34.170Z,98827.09
2022-08-18T12:36:13.720Z,98822.41
2022-08-18T12:38:45.231Z,98835.06
2022-08-18T12:41:23.556Z,98829.22
2022-08-18T12:43:58.461Z,98837.13
2022-08-18T12:46:27.743Z,98830.41
2022-08-18T12:48:55.307Z,98843.56
2022-08-18T12:51:24.918Z,98834.66
2022-08-18T12:54:00.001Z,98840.16
2022-08-18T12:56:30.843Z,98844.34
2022-08-18T12:59:01.264Z,98847.09
2022-08-18T13:01:33.437Z,98837.56
2022-08-18T13:04:12.433Z,98837.59
2022-08-18T13:06:50.362Z,98850.91
2022-08-18T13:09:34.940Z,98857.00
2022-08-18T13:12:19.867Z,98850.78
2022-08-18T13:14:48.756Z,98847.59
2022-08-18T13:17:30.370Z,98854.91
2022-08-18T13:20:06.505Z,98858.31
2022-08-18T13:22:37.225Z,98848.09
2022-08-18T13:25:07.557Z,98863.88
2022-08-18T13:27:37.513Z,98854.88
2022-08-18T13:30:16.737Z,98870.50
2022-08-18T13:32:58.768Z,98861.22
2022-08-18T13:35:30.090Z,98865.84
2022-08-18T13:38:12.417Z,98867.88
2022-08-18T13:40:47.093Z,98872.22
2022-08-18T13:43:17.516Z,98866.06
2022-08-18T13:45:52.930Z,98874.81
2022-08-18T13:48:24.322Z,98868.13
2022-08-18T13:50:55.791Z,98871.94
2022-08-18T13:53:27.195Z,98877.09
2022-08-18T13:55:58.671Z,98884.38
2022-08-18T13:58:27.460Z,98881.28
2022-08-18T14:01:42.129Z,98889.06
2022-08-18T14:03:51.584Z,98879.47
2022-08-18T14:06:23.777Z,98879.88
2022-08-18T14:08:53.174Z,98884.97
2022-08-18T14:11:26.420Z,98884.25
2022-08-18T14:13:56.428Z,98887.16
2022-08-18T14:16:26.799Z,98893.16
2022-08-18T14:19:24.383Z,98888.56
2022-08-18T14:22:14.429Z,98889.81
2022-08-18T14:25:02.313Z,98894.94
2022-08-18T14:27:37.409Z,98901.97
2022-08-18T14:30:09.163Z,98900.59
2022-08-18T14:32:49.033Z,98905.34
2022-08-18T14:36:03.794Z,98901.06
2022-08-18T14:38:07.377Z,98905.88
2022-08-18T14:40:42.955Z,98908.66
2022-08-18T14:43:16.101Z,98918.91
2022-08-18T14:45:50.193Z,98909.13
2022-08-18T14:48:22.601Z,98911.13
2022-08-18T14:50:55.629Z,98914.25
2022-08-18T14:53:27.080Z,98913.50
2022-08-18T14:55:55.760Z,98915.88
2022-08-18T14:58:28.985Z,98915.13
2022-08-18T15:01:02.955Z,98920.66
2022-08-18T15:03:37.258Z,98923.19
2022-08-18T15:06:06.636Z,98922.03
2022-08-18T15:08:37.657Z,98925.97
2022-08-18T15:11:11.661Z,98927.16
2022-08-18T15:13:42.285Z,98937.31
2022-08-18T15:16:14.049Z,98934.56
2022-08-18T15:18:43.611Z,98932.59
2022-08-18T15:21:35.298Z,98925.56
2022-08-18T15:24:26.548Z,98935.72
2022-08-18T15:27:03.275Z,98947.03
2022-08-18T15:29:34.384Z,98941.13
2022-08-18T15:32:06.022Z,98933.31
2022-08-18T15:34:46.984Z,98943.88
2022-08-18T15:37:23.989Z,98948.16
2022-08-18T15:40:30.170Z,98940.63
2022-08-18T15:43:04.166Z,98944.22
2022-08-18T15:45:43.258Z,98949.66
2022-08-18T15:48:21.100Z,98952.38
2022-08-18T15:50:50.909Z,98955.53
2022-08-18T15:53:23.123Z,98962.56
2022-08-18T15:55:50.796Z,98946.19
2022-08-18T15:58:22.475Z,98952.53
2022-08-18T16:00:54.834Z,98959.13
2022-08-18T16:03:22.709Z,98968.91
2022-08-18T16:05:53.298Z,98956.03
2022-08-18T16:08:23.894Z,98964.59
2022-08-18T16:10:52.880Z,98967.34
2022-08-18T16:13:21.297Z,98970.09
2022-08-18T16:15:50.159Z,98967.34
2022-08-18T16:18:21.258Z,98956.03
2022-08-18T16:20:50.640Z,98962.28
2022-08-18T16:23:20.812Z,98962.28
2022-08-18T16:25:48.420Z,98958.38
2022-08-18T16:28:16.086Z,98957.25
2022-08-18T16:30:49.507Z,98958.00
2022-08-18T16:33:24.739Z,98966.19
2022-08-18T16:35:54.015Z,98951.00
2022-08-18T16:38:22.288Z,98957.63
2022-08-18T16:40:49.979Z,98963.88
2022-08-18T16:43:17.790Z,98961.94
2022-08-18T16:45:45.331Z,98959.22
2022-08-18T16:48:16.673Z,98951.03
2022-08-18T16:50:45.643Z,98961.97
2022-08-18T16:53:13.154Z,98950.63
2022-08-18T16:55:43.556Z,98963.91
2022-08-18T16:58:29.710Z,98966.25
2022-08-18T17:01:18.989Z,98960.38
2022-08-18T17:04:13.480Z,98970.16
2022-08-18T17:06:47.739Z,98954.91
2022-08-18T17:09:16.588Z,98959.59
2022-08-18T17:11:51.458Z,98966.25
2022-08-18T17:14:25.523Z,98970.94
2022-08-18T17:16:57.032Z,98963.88
2022-08-18T17:19:28.130Z,98966.63
2022-08-18T17:21:56.015Z,98964.28
2022-08-18T17:24:31.658Z,98968.19
2022-08-18T17:27:27.679Z,98969.00
2022-08-18T17:30:16.833Z,98963.13
2022-08-18T17:32:56.996Z,98977.97
2022-08-18T17:35:33.427Z,98972.91
2022-08-18T17:38:07.474Z,98976.03
2022-08-18T17:40:48.735Z,98978.34
2022-08-18T17:43:19.113Z,98975.63
2022-08-18T17:45:55.986Z,98973.66
2022-08-18T17:48:34.522Z,98979.53
2022-08-18T17:51:27.377Z,98983.47
2022-08-18T17:53:55.201Z,98970.94
2022-08-18T17:56:36.118Z,98978.34
2022-08-18T17:59:46.217Z,98981.91
2022-08-18T18:02:28.655Z,98985.78
2022-08-18T18:05:00.778Z,98981.50
2022-08-18T18:07:52.408Z,98994.78
2022-08-18T18:11:05.413Z,98994.03
2022-08-18T18:13:34.349Z,98993.63
2022-08-18T18:16:21.274Z,99000.69
2022-08-18T18:19:03.109Z,98996.38
2022-08-18T18:22:00.405Z,98993.59
2022-08-18T18:24:30.519Z,99003.81
2022-08-18T18:26:58.551Z,99002.59
2022-08-18T18:29:37.938Z,99001.84
2022-08-18T18:32:24.312Z,99008.06
2022-08-18T18:35:14.451Z,99014.38
2022-08-18T18:38:00.894Z,99022.13
2022-08-18T18:40:31.031Z,99010.81
2022-08-18T18:43:19.676Z,99006.16
2022-08-18T18:46:23.558Z,99012.03
2022-08-18T18:49:12.113Z,99015.53
2022-08-18T18:51:45.358Z,99016.72
2022-08-18T18:54:57.194Z,99010.84
2022-08-18T18:57:38.039Z,99016.31
2022-08-18T19:00:20.275Z,99021.75
2022-08-18T19:03:05.307Z,99028.78
2022-08-18T19:06:00.597Z,99028.00
2022-08-18T19:08:49.636Z,99022.50
2022-08-18T19:11:42.947Z,99029.91
2022-08-18T19:14:28.312Z,99027.97
2022-08-18T19:17:20.232Z,99036.53
2022-08-18T19:19:52.357Z,99028.28
2022-08-18T19:22:27.584Z,99031.78
2022-08-18T19:25:03.884Z,99031.75
2022-08-18T19:27:38.464Z,99038.38
2022-08-18T19:30:14.124Z,99039.50
2022-08-18T19:32:49.832Z,99041.84
2022-08-18T19:35:25.379Z,99046.44
2022-08-18T19:38:14.608Z,99048.00
2022-08-18T19:41:07.167Z,99053.09
2022-08-18T19:43:56.040Z,99045.94
2022-08-18T19:46:36.352Z,99044.09
2022-08-18T19:49:22.589Z,99053.09
2022-08-18T19:51:58.469Z,99058.03
2022-08-18T19:55:07.591Z,99055.78
2022-08-18T19:58:07.239Z,99062.69
2022-08-18T20:00:56.896Z,99061.91
2022-08-18T20:03:56.387Z,99073.25
2022-08-18T20:06:34.454Z,99067.97
2022-08-18T20:09:14.886Z,99079.03
2022-08-18T20:12:03.717Z,99073.13
2022-08-18T20:14:37.269Z,99077.34
2022-08-18T20:17:21.966Z,99080.50
2022-08-18T20:20:13.770Z,99084.88
2022-08-18T20:22:45.235Z,99092.09
2022-08-18T20:25:16.791Z,99094.44
2022-08-18T20:27:53.156Z,99091.75
2022-08-18T20:30:20.681Z,99086.97
2022-08-18T20:33:15.579Z,99100.47
2022-08-18T20:36:11.768Z,99104.03
2022-08-18T20:38:46.708Z,99103.53
2022-08-18T20:41:30.380Z,99103.88
2022-08-18T20:44:05.220Z,99106.16
2022-08-18T20:46:52.423Z,99109.66
2022-08-18T20:49:58.270Z,99115.22
2022-08-18T20:52:39.275Z,99105.84
2022-08-18T20:55:37.025Z,99115.31
2022-08-18T20:58:16.182Z,99112.91
2022-08-18T21:00:55.105Z,99117.16
2022-08-18T21:03:25.246Z,99115.13
2022-08-18T21:05:58.855Z,99116.72
2022-08-18T21:08:29.730Z,99117.91
2022-08-18T21:11:30.935Z,99114.06
2022-08-18T21:14:04.389Z,99122.13
2022-08-18T21:16:39.990Z,99128.41
2022-08-18T21:19:24.554Z,99128.41
2022-08-18T21:22:04.214Z,99130.09
2022-08-18T21:24:37.969Z,99125.69
2022-08-18T21:27:07.308Z,99134.63
2022-08-18T21:29:46.942Z,99135.16
2022-08-18T21:32:37.959Z,99139.22
2022-08-18T21:35:22.963Z,99128.59
2022-08-18T21:37:57.803Z,99140.69
2022-08-18T21:40:48.204Z,99138.84
2022-08-18T21:43:40.870Z,99138.84
2022-08-18T21:46:25.080Z,99138.44
2022-08-18T21:48:55.290Z,99136.03
2022-08-18T21:51:32.895Z,99143.94
2022-08-18T21:54:01.115Z,99135.66
2022-08-18T21:56:33.917Z,99142.31
2022-08-18T21:59:07.078Z,99136.94
2022-08-18T22:01:36.369Z,99145.84
2022-08-18T22:04:25.184Z,99155.66
2022-08-18T22:06:59.568Z,99152.94
2022-08-18T22:09:49.614Z,99125.09
2022-08-18T22:12:48.746Z,99139.72
2022-08-18T22:15:21.230Z,99142.41
2022-08-18T22:17:57.275Z,99145.22
2022-08-18T22:20:37.074Z,99147.28
2022-08-18T22:23:32.144Z,99157.28
2022-08-18T22:26:17.890Z,99156.16
2022-08-18T22:29:06.906Z,99160.91
2022-08-18T22:31:46.818Z,99161.19
2022-08-18T22:34:16.709Z,99160.75
2022-08-18T22:36:56.357Z,99157.28
2022-08-18T22:39:37.461Z,99151.50
2022-08-18T22:42:06.715Z,99163.44
2022-08-18T22:44:34.483Z,99159.13
2022-08-18T22:47:03.879Z,99157.16
2022-08-18T22:49:36.132Z,99164.16
2022-08-18T22:52:19.159Z,99158.41
2022-08-18T22:54:46.806Z,99162.66
2022-08-18T22:57:18.409Z,99162.28
2022-08-18T22:59:51.383Z,99156.78
2022-08-18T23:02:22.170Z,99166.94
2022-08-18T23:04:50.295Z,99168.09
2022-08-18T23:07:22.920Z,99175.09
2022-08-18T23:09:50.532Z,99167.31
2022-08-18T23:12:17.902Z,99173.56
2022-08-18T23:14:46.896Z,99179.81
2022-08-18T23:17:14.497Z,99178.19
2022-08-18T23:19:42.978Z,99181.34
2022-08-18T23:22:11.131Z,99189.94
2022-08-18T23:24:39.130Z,99185.25
2022-08-18T23:27:06.847Z,99177.47
2022-08-18T23:29:37.757Z,99179.03
2022-08-18T23:32:05.660Z,99191.53
2022-08-18T23:34:34.816Z,99183.72
2022-08-18T23:37:03.602Z,99179.81
2022-08-18T23:39:33.404Z,99181.41
2022-08-18T23:42:02.375Z,99178.25
2022-08-18T23:44:30.048Z,99166.53
2022-08-18T23:46:58.335Z,99175.91
2022-08-18T23:49:29.335Z,99176.28
2022-08-18T23:51:58.221Z,99187.19
2022-08-18T23:54:29.380Z,99186.06
2022-08-18T23:56:57.054Z,99185.25
2022-08-18T23:59:26.675Z,99180.59
